sensor_id;sensor_type;location;lat;lon;timestamp;pressure;altitude;pressure_sealevel;temperature;humidity
13080;BME280;6606;49.154;9.280;2023-07-08T00:00:20;99642.66;;;19.29;100.00
13080;BME280;6606;49.154;9.280;2023-07-08T00:03:02;99643.91;;;19.25;100.00
13080;BME280;6606;49.154;9.280;2023-07-08T00:05:44;99635.56;;;19.28;100.00
13080;BME280;6606;49.154;9.280;2023-07-08T00:08:27;99634.09;;;19.15;100.00
13080;BME280;6606;49.154;9.280;2023-07-08T00:11:10;99624.63;;;19.20;100.00
13080;BME280;6606;49.154;9.280;2023-07-08T00:13:52;99632.97;;;19.17;100.00
13080;BME280;6606;49.154;9.280;2023-07-08T00:16:35;99618.28;;;19.21;100.00
13080;BME280;6606;49.154;9.280;2023-07-08T00:19:17;99618.53;;;19.18;100.00
13080;BME280;6606;49.154;9.280;2023-07-08T00:21:59;99624.19;;;19.15;100.00
13080;BME280;6606;49.154;9.280;2023-07-08T00:24:42;99618.63;;;19.07;100.00
13080;BME280;6606;49.154;9.280;2023-07-08T00:27:24;99614.25;;;19.06;100.00
13080;BME280;6606;49.154;9.280;2023-07-08T00:30:18;99613.97;;;19.09;100.00
13080;BME280;6606;49.154;9.280;2023-07-08T00:33:02;99614.38;;;19.04;100.00
13080;BME280;6606;49.154;9.280;2023-07-08T00:35:44;99608.81;;;18.96;100.00
13080;BME280;6606;49.154;9.280;2023-07-08T00:38:27;99611.38;;;18.98;100.00
13080;BME280;6606;49.154;9.280;2023-07-08T00:41:12;99608.97;;;18.95;100.00
13080;BME280;6606;49.154;9.280;2023-07-08T00:43:56;99611.56;;;18.85;100.00
13080;BME280;6606;49.154;9.280;2023-07-08T00:46:46;99611.84;;;18.82;100.00
13080;BME280;6606;49.154;9.280;2023-07-08T00:49:36;99617.06;;;18.83;100.00
13080;BME280;6606;49.154;9.280;2023-07-08T00:52:23;99620.00;;;18.80;100.00
13080;BME280;6606;49.154;9.280;2023-07-08T00:55:08;99630.66;;;18.71;100.00
13080;BME280;6606;49.154;9.280;2023-07-08T00:57:50;99633.75;;;18.66;100.00
13080;BME280;6606;49.154;9.280;2023-07-08T01:00:32;99629.59;;;18.62;100.00
13080;BME280;6606;49.154;9.280;2023-07-08T01:03:13;99636.16;;;18.69;100.00
13080;BME280;6606;49.154;9.280;2023-07-08T01:05:57;99644.22;;;18.69;100.00
13080;BME280;6606;49.154;9.280;2023-07-08T01:08:40;99642.09;;;18.52;100.00
13080;BME280;6606;49.154;9.280;2023-07-08T01:11:22;99650.88;;;18.54;100.00
13080;BME280;6606;49.154;9.280;2023-07-08T01:14:05;99657.56;;;18.59;100.00
13080;BME280;6606;49.154;9.280;2023-07-08T01:16:48;99652.34;;;18.58;100.00
13080;BME280;6606;49.154;9.280;2023-07-08T01:19:31;99654.28;;;18.56;100.00
13080;BME280;6606;49.154;9.280;2023-07-08T01:22:15;99650.59;;;18.57;100.00
13080;BME280;6606;49.154;9.280;2023-07-08T01:24:56;99645.75;;;18.51;100.00
13080;BME280;6606;49.154;9.280;2023-07-08T01:27:47;99639.03;;;18.56;100.00
13080;BME280;6606;49.154;9.280;2023-07-08T01:30:31;99638.75;;;18.59;100.00
13080;BME280;6606;49.154;9.280;2023-07-08T01:33:16;99633.91;;;18.53;100.00
13080;BME280;6606;49.154;9.280;2023-07-08T01:35:58;99631.03;;;18.45;100.00
13080;BME280;6606;49.154;9.280;2023-07-08T01:38:42;99630.94;;;18.35;100.00
13080;BME280;6606;49.154;9.280;2023-07-08T01:41:24;99638.25;;;18.33;100.00
13080;BME280;6606;49.154;9.280;2023-07-08T01:44:19;99629.31;;;18.12;100.00
13080;BME280;6606;49.154;9.280;2023-07-08T01:47:07;99633.09;;;18.09;100.00
13080;BME280;6606;49.154;9.280;2023-07-08T01:49:51;99636.41;;;18.13;100.00
13080;BME280;6606;49.154;9.280;2023-07-08T01:52:33;99633.97;;;17.98;100.00
13080;BME280;6606;49.154;9.280;2023-07-08T01:55:21;99633.25;;;17.96;100.00
13080;BME280;6606;49.154;9.280;2023-07-08T01:58:02;99627.41;;;17.91;100.00
13080;BME280;6606;49.154;9.280;2023-07-08T02:00:44;99629.84;;;17.83;100.00
13080;BME280;6606;49.154;9.280;2023-07-08T02:03:29;99637.91;;;17.83;100.00
13080;BME280;6606;49.154;9.280;2023-07-08T02:06:10;99635.97;;;17.63;100.00
13080;BME280;6606;49.154;9.280;2023-07-08T02:08:52;99645.09;;;17.60;100.00
13080;BME280;6606;49.154;9.280;2023-07-08T02:11:36;99648.38;;;17.64;100.00
13080;BME280;6606;49.154;9.280;2023-07-08T02:14:18;99641.94;;;17.55;100.00
13080;BME280;6606;49.154;9.280;2023-07-08T02:17:00;99640.09;;;17.55;100.00
13080;BME280;6606;49.154;9.280;2023-07-08T02:19:46;99635.09;;;17.51;100.00
13080;BME280;6606;49.154;9.280;2023-07-08T02:22:28;99622.56;;;17.40;100.00
13080;BME280;6606;49.154;9.280;2023-07-08T02:25:10;99623.31;;;17.31;100.00
13080;BME280;6606;49.154;9.280;2023-07-08T02:27:53;99621.81;;;17.27;100.00
13080;BME280;6606;49.154;9.280;2023-07-08T02:30:37;99613.78;;;17.27;100.00
13080;BME280;6606;49.154;9.280;2023-07-08T02:33:19;99629.63;;;17.19;100.00
13080;BME280;6606;49.154;9.280;2023-07-08T02:36:01;99642.16;;;17.18;100.00
13080;BME280;6606;49.154;9.280;2023-07-08T02:38:43;99636.41;;;17.11;100.00
13080;BME280;6606;49.154;9.280;2023-07-08T02:41:25;99630.22;;;17.11;100.00
13080;BME280;6606;49.154;9.280;2023-07-08T02:44:08;99634.22;;;17.05;100.00
13080;BME280;6606;49.154;9.280;2023-07-08T02:46:50;99633.22;;;16.95;100.00
13080;BME280;6606;49.154;9.280;2023-07-08T02:49:31;99635.91;;;16.95;100.00
13080;BME280;6606;49.154;9.280;2023-07-08T02:52:13;99641.00;;;16.87;100.00
13080;BME280;6606;49.154;9.280;2023-07-08T02:54:55;99639.50;;;16.83;100.00
13080;BME280;6606;49.154;9.280;2023-07-08T02:57:36;99641.84;;;16.87;100.00
13080;BME280;6606;49.154;9.280;2023-07-08T03:00:19;99649.03;;;16.87;100.00
13080;BME280;6606;49.154;9.280;2023-07-08T03:03:01;99646.84;;;16.81;100.00
13080;BME280;6606;49.154;9.280;2023-07-08T03:05:43;99651.44;;;16.79;100.00
13080;BME280;6606;49.154;9.280;2023-07-08T03:08:24;99653.28;;;16.78;100.00
13080;BME280;6606;49.154;9.280;2023-07-08T03:11:07;99651.75;;;16.74;100.00
13080;BME280;6606;49.154;9.280;2023-07-08T03:13:49;99653.09;;;16.68;100.00
13080;BME280;6606;49.154;9.280;2023-07-08T03:16:33;99665.09;;;16.63;100.00
13080;BME280;6606;49.154;9.280;2023-07-08T03:19:15;99670.69;;;16.60;100.00
13080;BME280;6606;49.154;9.280;2023-07-08T03:21:57;99670.28;;;16.53;100.00
13080;BME280;6606;49.154;9.280;2023-07-08T03:24:39;99668.13;;;16.58;100.00
13080;BME280;6606;49.154;9.280;2023-07-08T03:27:26;99671.53;;;16.60;100.00
13080;BME280;6606;49.154;9.280;2023-07-08T03:30:09;99678.22;;;16.55;100.00
13080;BME280;6606;49.154;9.280;2023-07-08T03:32:53;99675.78;;;16.52;100.00
13080;BME280;6606;49.154;9.280;2023-07-08T03:35:36;99681.94;;;16.41;100.00
13080;BME280;6606;49.154;9.280;2023-07-08T03:38:19;99678.88;;;16.45;100.00
13080;BME280;6606;49.154;9.280;2023-07-08T03:41:01;99682.06;;;16.51;100.00
13080;BME280;6606;49.154;9.280;2023-07-08T03:43:42;99694.38;;;16.53;100.00
13080;BME280;6606;49.154;9.280;2023-07-08T03:46:26;99698.13;;;16.51;100.00
13080;BME280;6606;49.154;9.280;2023-07-08T03:49:09;99700.69;;;16.52;100.00
13080;BME280;6606;49.154;9.280;2023-07-08T03:51:53;99701.72;;;16.62;100.00
13080;BME280;6606;49.154;9.280;2023-07-08T03:54:35;99705.97;;;16.78;100.00
13080;BME280;6606;49.154;9.280;2023-07-08T03:57:16;99695.41;;;16.87;100.00
13080;BME280;6606;49.154;9.280;2023-07-08T04:00:00;99702.34;;;16.90;100.00
13080;BME280;6606;49.154;9.280;2023-07-08T04:02:43;99708.81;;;16.99;100.00
13080;BME280;6606;49.154;9.280;2023-07-08T04:05:32;99702.53;;;17.11;100.00
13080;BME280;6606;49.154;9.280;2023-07-08T04:08:14;99695.72;;;17.18;100.00
13080;BME280;6606;49.154;9.280;2023-07-08T04:10:55;99699.84;;;17.22;100.00
13080;BME280;6606;49.154;9.280;2023-07-08T04:13:37;99703.44;;;17.34;100.00
13080;BME280;6606;49.154;9.280;2023-07-08T04:16:21;99705.63;;;17.51;100.00
13080;BME280;6606;49.154;9.280;2023-07-08T04:19:04;99706.97;;;17.57;100.00
13080;BME280;6606;49.154;9.280;2023-07-08T04:21:55;99705.03;;;17.59;100.00
13080;BME280;6606;49.154;9.280;2023-07-08T04:24:37;99704.16;;;17.70;100.00
13080;BME280;6606;49.154;9.280;2023-07-08T04:27:19;99701.97;;;17.75;100.00
13080;BME280;6606;49.154;9.280;2023-07-08T04:30:01;99694.31;;;17.93;100.00
13080;BME280;6606;49.154;9.280;2023-07-08T04:32:44;99703.22;;;18.16;100.00
13080;BME280;6606;49.154;9.280;2023-07-08T04:35:26;99709.50;;;18.37;100.00
13080;BME280;6606;49.154;9.280;2023-07-08T04:38:14;99702.34;;;18.59;100.00
13080;BME280;6606;49.154;9.280;2023-07-08T04:40:57;99697.16;;;18.78;100.00
13080;BME280;6606;49.154;9.280;2023-07-08T04:43:39;99703.41;;;19.00;100.00
13080;BME280;6606;49.154;9.280;2023-07-08T04:46:27;99698.19;;;19.19;100.00
13080;BME280;6606;49.154;9.280;2023-07-08T04:49:15;99702.44;;;19.43;100.00
13080;BME280;6606;49.154;9.280;2023-07-08T04:51:57;99705.22;;;19.62;100.00
13080;BME280;6606;49.154;9.280;2023-07-08T04:54:41;99699.25;;;19.89;100.00
13080;BME280;6606;49.154;9.280;2023-07-08T04:57:22;99681.09;;;19.82;100.00
13080;BME280;6606;49.154;9.280;2023-07-08T05:00:07;99690.38;;;20.08;100.00
13080;BME280;6606;49.154;9.280;2023-07-08T05:02:49;99691.44;;;20.27;100.00
13080;BME280;6606;49.154;9.280;2023-07-08T05:05:31;99686.19;;;20.25;100.00
13080;BME280;6606;49.154;9.280;2023-07-08T05:08:12;99680.81;;;20.35;100.00
13080;BME280;6606;49.154;9.280;2023-07-08T05:10:56;99684.72;;;20.61;100.00
13080;BME280;6606;49.154;9.280;2023-07-08T05:13:38;99684.69;;;20.71;100.00
13080;BME280;6606;49.154;9.280;2023-07-08T05:16:20;99680.72;;;21.04;100.00
13080;BME280;6606;49.154;9.280;2023-07-08T05:19:02;99686.06;;;21.34;100.00
13080;BME280;6606;49.154;9.280;2023-07-08T05:21:43;99687.03;;;21.52;100.00
13080;BME280;6606;49.154;9.280;2023-07-08T05:24:25;99679.69;;;21.72;100.00
13080;BME280;6606;49.154;9.280;2023-07-08T05:27:08;99681.31;;;21.92;100.00
13080;BME280;6606;49.154;9.280;2023-07-08T05:29:50;99678.81;;;22.09;100.00
13080;BME280;6606;49.154;9.280;2023-07-08T05:32:32;99671.63;;;22.27;95.21
13080;BME280;6606;49.154;9.280;2023-07-08T05:35:13;99671.09;;;22.42;94.42
13080;BME280;6606;49.154;9.280;2023-07-08T05:37:55;99677.88;;;22.46;93.86
13080;BME280;6606;49.154;9.280;2023-07-08T05:40:37;99668.41;;;22.42;94.07
13080;BME280;6606;49.154;9.280;2023-07-08T05:43:20;99663.91;;;22.32;93.08
13080;BME280;6606;49.154;9.280;2023-07-08T05:46:02;99663.06;;;22.32;90.26
13080;BME280;6606;49.154;9.280;2023-07-08T05:48:44;99655.59;;;22.26;89.26
13080;BME280;6606;49.154;9.280;2023-07-08T05:51:25;99664.63;;;22.34;88.29
13080;BME280;6606;49.154;9.280;2023-07-08T05:54:07;99667.69;;;22.39;90.99
13080;BME280;6606;49.154;9.280;2023-07-08T05:56:49;99671.25;;;22.58;89.63
13080;BME280;6606;49.154;9.280;2023-07-08T05:59:32;99682.13;;;22.84;86.08
13080;BME280;6606;49.154;9.280;2023-07-08T06:02:14;99689.41;;;23.01;84.36
13080;BME280;6606;49.154;9.280;2023-07-08T06:04:55;99694.63;;;23.21;86.08
13080;BME280;6606;49.154;9.280;2023-07-08T06:07:37;99697.00;;;23.24;80.65
13080;BME280;6606;49.154;9.280;2023-07-08T06:10:19;99714.25;;;23.49;80.79
13080;BME280;6606;49.154;9.280;2023-07-08T06:13:00;99728.69;;;23.84;73.66
13080;BME280;6606;49.154;9.280;2023-07-08T06:15:44;99734.31;;;24.33;76.06
13080;BME280;6606;49.154;9.280;2023-07-08T06:18:25;99728.31;;;24.55;75.49
13080;BME280;6606;49.154;9.280;2023-07-08T06:21:07;99743.94;;;24.78;77.61
13080;BME280;6606;49.154;9.280;2023-07-08T06:23:49;99768.13;;;24.55;79.18
13080;BME280;6606;49.154;9.280;2023-07-08T06:26:30;99755.78;;;24.69;84.51
13080;BME280;6606;49.154;9.280;2023-07-08T06:29:14;99753.41;;;24.74;87.36
13080;BME280;6606;49.154;9.280;2023-07-08T06:31:58;99772.03;;;24.69;88.19
13080;BME280;6606;49.154;9.280;2023-07-08T06:34:39;99764.91;;;24.51;88.54
13080;BME280;6606;49.154;9.280;2023-07-08T06:37:21;99752.06;;;24.70;92.17
13080;BME280;6606;49.154;9.280;2023-07-08T06:40:03;99738.88;;;24.91;86.68
13080;BME280;6606;49.154;9.280;2023-07-08T06:42:45;99739.59;;;25.18;84.88
13080;BME280;6606;49.154;9.280;2023-07-08T06:45:43;99742.44;;;25.08;82.53
13080;BME280;6606;49.154;9.280;2023-07-08T06:48:26;99765.06;;;24.58;83.26
13080;BME280;6606;49.154;9.280;2023-07-08T06:51:08;99782.38;;;24.23;87.03
13080;BME280;6606;49.154;9.280;2023-07-08T06:53:49;99782.00;;;24.18;92.25
13080;BME280;6606;49.154;9.280;2023-07-08T06:56:31;99784.16;;;24.40;92.70
13080;BME280;6606;49.154;9.280;2023-07-08T06:59:13;99781.06;;;24.77;89.59
13080;BME280;6606;49.154;9.280;2023-07-08T07:01:54;99776.16;;;24.81;85.39
13080;BME280;6606;49.154;9.280;2023-07-08T07:04:37;99776.28;;;24.71;88.56
13080;BME280;6606;49.154;9.280;2023-07-08T07:07:19;99775.22;;;25.23;84.50
13080;BME280;6606;49.154;9.280;2023-07-08T07:10:00;99763.19;;;29.09;64.10
13080;BME280;6606;49.154;9.280;2023-07-08T07:12:43;99761.63;;;31.22;46.21
13080;BME280;6606;49.154;9.280;2023-07-08T07:15:24;99764.28;;;33.93;39.91
13080;BME280;6606;49.154;9.280;2023-07-08T07:18:06;99774.78;;;34.03;33.73
13080;BME280;6606;49.154;9.280;2023-07-08T07:20:52;99774.78;;;34.40;34.50
13080;BME280;6606;49.154;9.280;2023-07-08T07:23:34;99769.19;;;34.47;34.71
13080;BME280;6606;49.154;9.280;2023-07-08T07:26:16;99766.50;;;34.58;32.06
13080;BME280;6606;49.154;9.280;2023-07-08T07:28:57;99754.22;;;34.91;29.83
13080;BME280;6606;49.154;9.280;2023-07-08T07:31:39;99754.16;;;35.75;29.51
13080;BME280;6606;49.154;9.280;2023-07-08T07:34:21;99745.44;;;36.30;29.36
13080;BME280;6606;49.154;9.280;2023-07-08T07:37:04;99756.81;;;37.32;28.26
13080;BME280;6606;49.154;9.280;2023-07-08T07:39:46;99765.88;;;38.39;27.34
13080;BME280;6606;49.154;9.280;2023-07-08T07:42:28;99764.03;;;37.67;25.73
13080;BME280;6606;49.154;9.280;2023-07-08T07:45:10;99763.66;;;37.46;25.98
13080;BME280;6606;49.154;9.280;2023-07-08T07:47:52;99762.31;;;37.66;24.51
13080;BME280;6606;49.154;9.280;2023-07-08T07:50:33;99768.28;;;38.13;24.59
13080;BME280;6606;49.154;9.280;2023-07-08T07:53:17;99775.22;;;39.63;23.95
13080;BME280;6606;49.154;9.280;2023-07-08T07:56:01;99776.13;;;38.16;23.81
13080;BME280;6606;49.154;9.280;2023-07-08T07:58:44;99774.53;;;37.87;25.19
13080;BME280;6606;49.154;9.280;2023-07-08T08:01:25;99773.13;;;37.84;24.81
13080;BME280;6606;49.154;9.280;2023-07-08T08:04:10;99774.94;;;37.56;25.37
13080;BME280;6606;49.154;9.280;2023-07-08T08:06:52;99772.88;;;38.02;25.69
13080;BME280;6606;49.154;9.280;2023-07-08T08:09:35;99778.31;;;37.47;25.50
13080;BME280;6606;49.154;9.280;2023-07-08T08:12:18;99776.00;;;38.50;25.52
13080;BME280;6606;49.154;9.280;2023-07-08T08:15:00;99772.38;;;38.05;26.23
13080;BME280;6606;49.154;9.280;2023-07-08T08:17:42;99778.38;;;33.79;28.96
13080;BME280;6606;49.154;9.280;2023-07-08T08:20:28;99783.78;;;34.47;29.84
13080;BME280;6606;49.154;9.280;2023-07-08T08:23:10;99775.41;;;34.61;30.19
13080;BME280;6606;49.154;9.280;2023-07-08T08:25:53;99776.44;;;32.59;33.13
13080;BME280;6606;49.154;9.280;2023-07-08T08:28:35;99787.34;;;32.07;34.13
13080;BME280;6606;49.154;9.280;2023-07-08T08:31:17;99779.34;;;33.91;31.33
13080;BME280;6606;49.154;9.280;2023-07-08T08:33:58;99789.81;;;32.35;33.21
13080;BME280;6606;49.154;9.280;2023-07-08T08:36:40;99785.81;;;32.83;32.44
13080;BME280;6606;49.154;9.280;2023-07-08T08:39:23;99801.75;;;34.50;31.17
13080;BME280;6606;49.154;9.280;2023-07-08T08:42:16;99793.97;;;34.47;30.61
13080;BME280;6606;49.154;9.280;2023-07-08T08:45:00;99798.31;;;33.17;32.93
13080;BME280;6606;49.154;9.280;2023-07-08T08:47:45;99791.19;;;31.66;34.98
13080;BME280;6606;49.154;9.280;2023-07-08T08:50:31;99790.53;;;33.39;33.21
13080;BME280;6606;49.154;9.280;2023-07-08T08:53:14;99791.94;;;36.10;30.28
13080;BME280;6606;49.154;9.280;2023-07-08T08:56:03;99795.84;;;35.43;30.40
13080;BME280;6606;49.154;9.280;2023-07-08T08:58:54;99789.97;;;33.05;32.79
13080;BME280;6606;49.154;9.280;2023-07-08T09:01:39;99786.38;;;32.47;33.94
13080;BME280;6606;49.154;9.280;2023-07-08T09:04:24;99780.84;;;31.82;37.91
13080;BME280;6606;49.154;9.280;2023-07-08T09:07:18;99785.69;;;31.60;40.16
13080;BME280;6606;49.154;9.280;2023-07-08T09:10:04;99783.13;;;31.05;42.04
13080;BME280;6606;49.154;9.280;2023-07-08T09:12:50;99790.06;;;30.46;42.41
13080;BME280;6606;49.154;9.280;2023-07-08T09:15:35;99788.56;;;30.98;43.10
13080;BME280;6606;49.154;9.280;2023-07-08T09:18:24;99786.09;;;31.30;42.62
13080;BME280;6606;49.154;9.280;2023-07-08T09:21:24;99777.66;;;31.25;42.99
13080;BME280;6606;49.154;9.280;2023-07-08T09:24:14;99782.75;;;31.28;40.52
13080;BME280;6606;49.154;9.280;2023-07-08T09:26:59;99782.31;;;31.77;40.81
13080;BME280;6606;49.154;9.280;2023-07-08T09:29:42;99775.81;;;31.39;42.61
13080;BME280;6606;49.154;9.280;2023-07-08T09:32:27;99766.75;;;31.58;43.79
13080;BME280;6606;49.154;9.280;2023-07-08T09:35:17;99768.41;;;31.79;42.54
13080;BME280;6606;49.154;9.280;2023-07-08T09:38:06;99759.69;;;32.22;38.97
13080;BME280;6606;49.154;9.280;2023-07-08T09:40:49;99765.78;;;32.24;38.45
13080;BME280;6606;49.154;9.280;2023-07-08T09:43:35;99772.47;;;32.41;38.61
13080;BME280;6606;49.154;9.280;2023-07-08T09:46:18;99760.78;;;32.01;39.04
13080;BME280;6606;49.154;9.280;2023-07-08T09:49:09;99759.81;;;32.40;38.22
13080;BME280;6606;49.154;9.280;2023-07-08T09:51:51;99759.63;;;32.42;39.05
13080;BME280;6606;49.154;9.280;2023-07-08T09:54:33;99762.75;;;32.46;39.43
13080;BME280;6606;49.154;9.280;2023-07-08T09:57:22;99756.19;;;32.47;36.98
13080;BME280;6606;49.154;9.280;2023-07-08T10:00:09;99764.13;;;32.68;37.11
13080;BME280;6606;49.154;9.280;2023-07-08T10:02:55;99761.25;;;32.95;36.95
13080;BME280;6606;49.154;9.280;2023-07-08T10:05:41;99769.56;;;33.20;35.72
13080;BME280;6606;49.154;9.280;2023-07-08T10:08:25;99774.03;;;32.17;36.99
13080;BME280;6606;49.154;9.280;2023-07-08T10:11:17;99774.66;;;32.19;38.86
13080;BME280;6606;49.154;9.280;2023-07-08T10:14:03;99774.75;;;33.03;35.53
13080;BME280;6606;49.154;9.280;2023-07-08T10:16:46;99767.69;;;32.82;36.80
13080;BME280;6606;49.154;9.280;2023-07-08T10:19:28;99766.63;;;32.31;37.33
13080;BME280;6606;49.154;9.280;2023-07-08T10:22:36;99761.19;;;32.11;38.93
13080;BME280;6606;49.154;9.280;2023-07-08T10:25:28;99760.00;;;31.61;40.46
13080;BME280;6606;49.154;9.280;2023-07-08T10:28:23;99755.03;;;32.29;39.21
13080;BME280;6606;49.154;9.280;2023-07-08T10:31:19;99748.13;;;32.97;37.83
13080;BME280;6606;49.154;9.280;2023-07-08T10:34:28;99740.63;;;33.17;35.96
13080;BME280;6606;49.154;9.280;2023-07-08T10:37:22;99746.53;;;32.82;37.53
13080;BME280;6606;49.154;9.280;2023-07-08T10:40:24;99742.44;;;33.30;36.04
13080;BME280;6606;49.154;9.280;2023-07-08T10:43:33;99736.53;;;33.52;36.57
13080;BME280;6606;49.154;9.280;2023-07-08T10:46:26;99742.34;;;33.37;35.73
13080;BME280;6606;49.154;9.280;2023-07-08T10:49:27;99739.31;;;33.26;34.81
13080;BME280;6606;49.154;9.280;2023-07-08T10:52:23;99732.84;;;33.14;34.30
13080;BME280;6606;49.154;9.280;2023-07-08T10:55:24;99731.16;;;33.13;34.73
13080;BME280;6606;49.154;9.280;2023-07-08T10:58:39;99735.91;;;32.93;35.10
13080;BME280;6606;49.154;9.280;2023-07-08T11:01:29;99728.22;;;32.76;36.78
13080;BME280;6606;49.154;9.280;2023-07-08T11:04:36;99730.50;;;32.79;34.92
13080;BME280;6606;49.154;9.280;2023-07-08T11:07:30;99721.34;;;32.60;34.59
13080;BME280;6606;49.154;9.280;2023-07-08T11:10:16;99720.06;;;32.63;35.30
13080;BME280;6606;49.154;9.280;2023-07-08T11:13:05;99719.38;;;32.99;34.20
13080;BME280;6606;49.154;9.280;2023-07-08T11:15:53;99720.06;;;32.95;34.47
13080;BME280;6606;49.154;9.280;2023-07-08T11:18:42;99719.44;;;33.24;34.41
13080;BME280;6606;49.154;9.280;2023-07-08T11:21:28;99711.47;;;33.41;32.76
13080;BME280;6606;49.154;9.280;2023-07-08T11:24:17;99720.59;;;33.60;34.35
13080;BME280;6606;49.154;9.280;2023-07-08T11:27:05;99725.47;;;33.83;33.42
13080;BME280;6606;49.154;9.280;2023-07-08T11:29:53;99722.19;;;33.75;32.96
13080;BME280;6606;49.154;9.280;2023-07-08T11:32:37;99713.16;;;33.86;33.84
13080;BME280;6606;49.154;9.280;2023-07-08T11:35:21;99707.84;;;33.66;32.90
13080;BME280;6606;49.154;9.280;2023-07-08T11:38:04;99695.06;;;33.78;33.75
13080;BME280;6606;49.154;9.280;2023-07-08T11:40:54;99711.84;;;33.45;33.17
13080;BME280;6606;49.154;9.280;2023-07-08T11:43:44;99709.16;;;33.63;33.04
13080;BME280;6606;49.154;9.280;2023-07-08T11:46:31;99702.06;;;33.92;32.90
13080;BME280;6606;49.154;9.280;2023-07-08T11:49:14;99697.19;;;33.76;32.17
13080;BME280;6606;49.154;9.280;2023-07-08T11:51:57;99699.88;;;34.38;33.37
13080;BME280;6606;49.154;9.280;2023-07-08T11:54:45;99692.66;;;34.00;32.54
13080;BME280;6606;49.154;9.280;2023-07-08T11:57:29;99687.88;;;33.96;33.29
13080;BME280;6606;49.154;9.280;2023-07-08T12:00:15;99697.97;;;34.50;31.23
13080;BME280;6606;49.154;9.280;2023-07-08T12:03:16;99692.00;;;34.53;31.66
13080;BME280;6606;49.154;9.280;2023-07-08T12:05:59;99681.66;;;34.37;31.47
13080;BME280;6606;49.154;9.280;2023-07-08T12:08:46;99674.63;;;34.41;31.11
13080;BME280;6606;49.154;9.280;2023-07-08T12:11:31;99671.34;;;34.32;32.32
13080;BME280;6606;49.154;9.280;2023-07-08T12:14:14;99678.44;;;34.40;31.10
13080;BME280;6606;49.154;9.280;2023-07-08T12:16:56;99672.09;;;34.40;31.09
13080;BME280;6606;49.154;9.280;2023-07-08T12:19:39;99677.41;;;34.53;30.49
13080;BME280;6606;49.154;9.280;2023-07-08T12:22:23;99665.31;;;34.84;29.86
13080;BME280;6606;49.154;9.280;2023-07-08T12:25:09;99660.47;;;35.10;29.65
13080;BME280;6606;49.154;9.280;2023-07-08T12:27:54;99658.69;;;35.27;29.69
13080;BME280;6606;49.154;9.280;2023-07-08T12:30:36;99655.69;;;35.64;29.58
13080;BME280;6606;49.154;9.280;2023-07-08T12:33:21;99652.34;;;35.27;29.40
13080;BME280;6606;49.154;9.280;2023-07-08T12:36:10;99648.75;;;35.50;28.74
13080;BME280;6606;49.154;9.280;2023-07-08T12:38:58;99654.97;;;35.33;28.62
13080;BME280;6606;49.154;9.280;2023-07-08T12:41:42;99645.88;;;35.09;29.13
13080;BME280;6606;49.154;9.280;2023-07-08T12:44:26;99655.88;;;35.03;29.45
13080;BME280;6606;49.154;9.280;2023-07-08T12:47:07;99655.06;;;34.61;29.42
13080;BME280;6606;49.154;9.280;2023-07-08T12:49:49;99657.25;;;34.71;29.80
13080;BME280;6606;49.154;9.280;2023-07-08T12:52:34;99665.03;;;34.62;30.31
13080;BME280;6606;49.154;9.280;2023-07-08T12:55:16;99651.41;;;34.79;29.02
13080;BME280;6606;49.154;9.280;2023-07-08T12:57:59;99658.00;;;34.78;28.67
13080;BME280;6606;49.154;9.280;2023-07-08T13:00:41;99651.31;;;34.86;29.27
13080;BME280;6606;49.154;9.280;2023-07-08T13:03:25;99655.16;;;34.54;29.35
13080;BME280;6606;49.154;9.280;2023-07-08T13:06:09;99646.84;;;34.43;29.49
13080;BME280;6606;49.154;9.280;2023-07-08T13:08:52;99644.44;;;34.65;29.52
13080;BME280;6606;49.154;9.280;2023-07-08T13:11:36;99649.41;;;34.86;28.95
13080;BME280;6606;49.154;9.280;2023-07-08T13:14:19;99644.19;;;35.32;29.04
13080;BME280;6606;49.154;9.280;2023-07-08T13:17:02;99647.25;;;35.00;28.77
13080;BME280;6606;49.154;9.280;2023-07-08T13:19:45;99651.75;;;35.36;30.21
13080;BME280;6606;49.154;9.280;2023-07-08T13:22:27;99654.59;;;35.88;29.45
13080;BME280;6606;49.154;9.280;2023-07-08T13:25:14;99652.41;;;35.91;28.20
13080;BME280;6606;49.154;9.280;2023-07-08T13:27:59;99641.66;;;35.30;27.86
13080;BME280;6606;49.154;9.280;2023-07-08T13:30:49;99634.72;;;35.63;28.47
13080;BME280;6606;49.154;9.280;2023-07-08T13:33:33;99641.63;;;36.29;28.58
13080;BME280;6606;49.154;9.280;2023-07-08T13:36:18;99646.66;;;35.80;27.00
13080;BME280;6606;49.154;9.280;2023-07-08T13:39:02;99638.47;;;36.38;26.61
13080;BME280;6606;49.154;9.280;2023-07-08T13:41:48;99638.38;;;36.32;27.56
13080;BME280;6606;49.154;9.280;2023-07-08T13:44:30;99632.28;;;35.78;27.65
13080;BME280;6606;49.154;9.280;2023-07-08T13:47:23;99638.72;;;35.96;28.02
13080;BME280;6606;49.154;9.280;2023-07-08T13:50:14;99632.81;;;36.44;27.52
13080;BME280;6606;49.154;9.280;2023-07-08T13:52:58;99637.19;;;36.57;27.36
13080;BME280;6606;49.154;9.280;2023-07-08T13:55:40;99629.25;;;35.92;28.31
13080;BME280;6606;49.154;9.280;2023-07-08T13:58:27;99634.34;;;35.71;28.00
13080;BME280;6606;49.154;9.280;2023-07-08T14:01:15;99635.75;;;34.91;28.74
13080;BME280;6606;49.154;9.280;2023-07-08T14:03:58;99632.56;;;35.65;27.92
13080;BME280;6606;49.154;9.280;2023-07-08T14:06:42;99638.03;;;35.88;26.85
13080;BME280;6606;49.154;9.280;2023-07-08T14:09:24;99623.22;;;35.19;27.79
13080;BME280;6606;49.154;9.280;2023-07-08T14:12:07;99625.34;;;34.93;28.56
13080;BME280;6606;49.154;9.280;2023-07-08T14:14:50;99627.72;;;34.78;29.27
13080;BME280;6606;49.154;9.280;2023-07-08T14:17:32;99634.78;;;34.55;28.98
13080;BME280;6606;49.154;9.280;2023-07-08T14:20:15;99629.63;;;34.89;29.88
13080;BME280;6606;49.154;9.280;2023-07-08T14:22:57;99620.44;;;35.54;29.07
13080;BME280;6606;49.154;9.280;2023-07-08T14:25:39;99625.75;;;36.08;28.43
13080;BME280;6606;49.154;9.280;2023-07-08T14:28:21;99624.63;;;35.57;29.02
13080;BME280;6606;49.154;9.280;2023-07-08T14:31:08;99625.38;;;35.29;29.50
13080;BME280;6606;49.154;9.280;2023-07-08T14:33:56;99626.34;;;35.22;30.43
13080;BME280;6606;49.154;9.280;2023-07-08T14:36:39;99631.38;;;34.60;30.77
13080;BME280;6606;49.154;9.280;2023-07-08T14:39:21;99623.09;;;35.37;30.30